sensor_id;sensor_type;location;lat;lon;timestamp;P1;durP1;ratioP1;P2;durP2;ratioP2
73642;SDS011;61938;48.652;9.292;2023-06-14T00:01:11;12.90;;;5.70;;
73642;SDS011;61938;48.652;9.292;2023-06-14T00:03:38;17.02;;;6.70;;
73642;SDS011;61938;48.652;9.292;2023-06-14T00:06:04;20.05;;;6.43;;
73642;SDS011;61938;48.652;9.292;2023-06-14T00:08:29;9.80;;;6.13;;
73642;SDS011;61938;48.652;9.292;2023-06-14T00:10:55;12.18;;;6.57;;
73642;SDS011;61938;48.652;9.292;2023-06-14T00:13:21;13.07;;;5.88;;
73642;SDS011;61938;48.652;9.292;2023-06-14T00:15:46;13.23;;;6.50;;
73642;SDS011;61938;48.652;9.292;2023-06-14T00:18:12;12.60;;;6.63;;
73642;SDS011;61938;48.652;9.292;2023-06-14T00:20:38;17.23;;;7.28;;
73642;SDS011;61938;48.652;9.292;2023-06-14T00:23:04;18.45;;;7.18;;
73642;SDS011;61938;48.652;9.292;2023-06-14T00:25:30;15.02;;;6.97;;
73642;SDS011;61938;48.652;9.292;2023-06-14T00:27:56;14.40;;;6.30;;
73642;SDS011;61938;48.652;9.292;2023-06-14T00:30:22;19.38;;;7.30;;
73642;SDS011;61938;48.652;9.292;2023-06-14T00:32:48;13.27;;;6.85;;
73642;SDS011;61938;48.652;9.292;2023-06-14T00:35:14;15.25;;;6.63;;
73642;SDS011;61938;48.652;9.292;2023-06-14T00:37:40;15.32;;;6.38;;
73642;SDS011;61938;48.652;9.292;2023-06-14T00:40:05;13.85;;;6.97;;
73642;SDS011;61938;48.652;9.292;2023-06-14T00:42:32;20.92;;;6.78;;
73642;SDS011;61938;48.652;9.292;2023-06-14T00:44:58;21.55;;;7.10;;
73642;SDS011;61938;48.652;9.292;2023-06-14T00:47:24;15.57;;;6.75;;
73642;SDS011;61938;48.652;9.292;2023-06-14T00:49:50;22.30;;;7.00;;
73642;SDS011;61938;48.652;9.292;2023-06-14T00:52:16;14.98;;;6.85;;
73642;SDS011;61938;48.652;9.292;2023-06-14T00:54:42;14.07;;;6.30;;
73642;SDS011;61938;48.652;9.292;2023-06-14T00:57:09;14.32;;;6.20;;
73642;SDS011;61938;48.652;9.292;2023-06-14T00:59:37;18.23;;;6.88;;
73642;SDS011;61938;48.652;9.292;2023-06-14T01:02:07;12.55;;;6.57;;
73642;SDS011;61938;48.652;9.292;2023-06-14T01:04:32;13.02;;;7.00;;
73642;SDS011;61938;48.652;9.292;2023-06-14T01:09:37;24.60;;;6.72;;
73642;SDS011;61938;48.652;9.292;2023-06-14T01:12:15;26.45;;;7.47;;
73642;SDS011;61938;48.652;9.292;2023-06-14T01:14:52;20.38;;;7.70;;
73642;SDS011;61938;48.652;9.292;2023-06-14T01:17:20;14.65;;;6.95;;
73642;SDS011;61938;48.652;9.292;2023-06-14T01:19:48;23.92;;;7.10;;
73642;SDS011;61938;48.652;9.292;2023-06-14T01:22:14;14.85;;;7.32;;
73642;SDS011;61938;48.652;9.292;2023-06-14T01:24:39;16.42;;;7.78;;
73642;SDS011;61938;48.652;9.292;2023-06-14T01:27:09;11.52;;;7.20;;
73642;SDS011;61938;48.652;9.292;2023-06-14T01:29:37;17.83;;;8.32;;
73642;SDS011;61938;48.652;9.292;2023-06-14T01:32:03;19.75;;;8.65;;
73642;SDS011;61938;48.652;9.292;2023-06-14T01:34:30;18.38;;;7.97;;
73642;SDS011;61938;48.652;9.292;2023-06-14T01:36:56;15.57;;;7.40;;
73642;SDS011;61938;48.652;9.292;2023-06-14T01:39:25;14.43;;;7.53;;
73642;SDS011;61938;48.652;9.292;2023-06-14T01:41:51;19.67;;;7.93;;
73642;SDS011;61938;48.652;9.292;2023-06-14T01:44:17;14.95;;;7.65;;
73642;SDS011;61938;48.652;9.292;2023-06-14T01:46:44;13.38;;;7.93;;
73642;SDS011;61938;48.652;9.292;2023-06-14T01:49:10;13.70;;;8.32;;
73642;SDS011;61938;48.652;9.292;2023-06-14T01:51:36;11.85;;;8.57;;
73642;SDS011;61938;48.652;9.292;2023-06-14T01:54:02;12.32;;;7.90;;
73642;SDS011;61938;48.652;9.292;2023-06-14T01:56:27;13.05;;;7.88;;
73642;SDS011;61938;48.652;9.292;2023-06-14T01:58:53;12.73;;;7.78;;
73642;SDS011;61938;48.652;9.292;2023-06-14T02:01:19;11.38;;;7.10;;
73642;SDS011;61938;48.652;9.292;2023-06-14T02:03:46;11.50;;;7.30;;
73642;SDS011;61938;48.652;9.292;2023-06-14T02:06:13;13.63;;;7.50;;
73642;SDS011;61938;48.652;9.292;2023-06-14T02:08:38;14.82;;;7.85;;
73642;SDS011;61938;48.652;9.292;2023-06-14T02:11:04;11.43;;;7.85;;
73642;SDS011;61938;48.652;9.292;2023-06-14T02:13:30;15.43;;;7.80;;
73642;SDS011;61938;48.652;9.292;2023-06-14T02:15:55;11.80;;;7.32;;
73642;SDS011;61938;48.652;9.292;2023-06-14T02:18:22;13.68;;;7.32;;
73642;SDS011;61938;48.652;9.292;2023-06-14T02:20:48;14.02;;;8.35;;
73642;SDS011;61938;48.652;9.292;2023-06-14T02:23:14;17.42;;;9.25;;
73642;SDS011;61938;48.652;9.292;2023-06-14T02:25:39;14.45;;;8.43;;
73642;SDS011;61938;48.652;9.292;2023-06-14T02:28:05;14.93;;;8.20;;
73642;SDS011;61938;48.652;9.292;2023-06-14T02:30:31;12.63;;;7.55;;
73642;SDS011;61938;48.652;9.292;2023-06-14T02:32:56;18.88;;;8.15;;
73642;SDS011;61938;48.652;9.292;2023-06-14T02:35:22;15.82;;;7.97;;
73642;SDS011;61938;48.652;9.292;2023-06-14T02:37:51;15.88;;;7.93;;
73642;SDS011;61938;48.652;9.292;2023-06-14T02:40:17;15.70;;;8.93;;
73642;SDS011;61938;48.652;9.292;2023-06-14T02:42:43;24.27;;;9.30;;
73642;SDS011;61938;48.652;9.292;2023-06-14T02:45:09;17.50;;;8.35;;
73642;SDS011;61938;48.652;9.292;2023-06-14T02:47:34;15.25;;;8.25;;
73642;SDS011;61938;48.652;9.292;2023-06-14T02:50:00;14.85;;;8.18;;
73642;SDS011;61938;48.652;9.292;2023-06-14T02:52:25;15.68;;;8.05;;
73642;SDS011;61938;48.652;9.292;2023-06-14T02:54:51;17.35;;;8.75;;
73642;SDS011;61938;48.652;9.292;2023-06-14T02:57:17;15.80;;;7.80;;
73642;SDS011;61938;48.652;9.292;2023-06-14T02:59:42;16.33;;;7.90;;
73642;SDS011;61938;48.652;9.292;2023-06-14T03:02:08;14.48;;;7.68;;
73642;SDS011;61938;48.652;9.292;2023-06-14T03:04:33;13.82;;;7.68;;
73642;SDS011;61938;48.652;9.292;2023-06-14T03:07:02;13.52;;;7.85;;
73642;SDS011;61938;48.652;9.292;2023-06-14T03:12:03;12.90;;;7.53;;
73642;SDS011;61938;48.652;9.292;2023-06-14T03:14:29;17.27;;;8.60;;
73642;SDS011;61938;48.652;9.292;2023-06-14T03:16:55;20.70;;;9.38;;
73642;SDS011;61938;48.652;9.292;2023-06-14T03:19:21;16.52;;;8.48;;
73642;SDS011;61938;48.652;9.292;2023-06-14T03:21:47;20.85;;;9.55;;
73642;SDS011;61938;48.652;9.292;2023-06-14T03:24:14;15.07;;;8.70;;
73642;SDS011;61938;48.652;9.292;2023-06-14T03:26:41;14.50;;;8.82;;
73642;SDS011;61938;48.652;9.292;2023-06-14T03:29:07;16.95;;;8.77;;
73642;SDS011;61938;48.652;9.292;2023-06-14T03:31:33;13.20;;;7.70;;
73642;SDS011;61938;48.652;9.292;2023-06-14T03:33:59;15.18;;;8.32;;
73642;SDS011;61938;48.652;9.292;2023-06-14T03:36:25;16.25;;;8.63;;
73642;SDS011;61938;48.652;9.292;2023-06-14T03:38:52;15.98;;;8.80;;
73642;SDS011;61938;48.652;9.292;2023-06-14T03:41:19;19.23;;;9.07;;
73642;SDS011;61938;48.652;9.292;2023-06-14T03:43:45;15.07;;;8.38;;
73642;SDS011;61938;48.652;9.292;2023-06-14T03:46:10;18.58;;;8.35;;
73642;SDS011;61938;48.652;9.292;2023-06-14T03:48:36;15.90;;;8.35;;
73642;SDS011;61938;48.652;9.292;2023-06-14T03:51:02;15.50;;;7.65;;
73642;SDS011;61938;48.652;9.292;2023-06-14T03:53:27;16.52;;;7.40;;
73642;SDS011;61938;48.652;9.292;2023-06-14T03:55:54;19.60;;;8.18;;
73642;SDS011;61938;48.652;9.292;2023-06-14T03:58:20;15.68;;;8.43;;
73642;SDS011;61938;48.652;9.292;2023-06-14T04:00:46;17.92;;;8.55;;
73642;SDS011;61938;48.652;9.292;2023-06-14T04:03:12;14.27;;;8.20;;
73642;SDS011;61938;48.652;9.292;2023-06-14T04:05:38;12.02;;;7.50;;
73642;SDS011;61938;48.652;9.292;2023-06-14T04:08:07;15.20;;;8.02;;
73642;SDS011;61938;48.652;9.292;2023-06-14T04:10:34;15.93;;;8.35;;
73642;SDS011;61938;48.652;9.292;2023-06-14T04:12:59;16.42;;;8.25;;
73642;SDS011;61938;48.652;9.292;2023-06-14T04:15:25;16.35;;;8.57;;
73642;SDS011;61938;48.652;9.292;2023-06-14T04:17:55;15.60;;;7.72;;
73642;SDS011;61938;48.652;9.292;2023-06-14T04:20:22;13.70;;;7.72;;
73642;SDS011;61938;48.652;9.292;2023-06-14T04:22:49;12.57;;;7.85;;
73642;SDS011;61938;48.652;9.292;2023-06-14T04:25:15;17.02;;;7.97;;
73642;SDS011;61938;48.652;9.292;2023-06-14T04:27:41;14.23;;;8.43;;
73642;SDS011;61938;48.652;9.292;2023-06-14T04:30:07;15.95;;;8.20;;
73642;SDS011;61938;48.652;9.292;2023-06-14T04:32:33;16.73;;;8.65;;
73642;SDS011;61938;48.652;9.292;2023-06-14T04:34:59;17.98;;;9.35;;
73642;SDS011;61938;48.652;9.292;2023-06-14T04:37:27;14.77;;;7.43;;
73642;SDS011;61938;48.652;9.292;2023-06-14T04:39:54;12.07;;;7.65;;
73642;SDS011;61938;48.652;9.292;2023-06-14T04:42:20;14.63;;;8.43;;
73642;SDS011;61938;48.652;9.292;2023-06-14T04:44:56;16.98;;;8.68;;
73642;SDS011;61938;48.652;9.292;2023-06-14T04:47:22;14.35;;;8.68;;
73642;SDS011;61938;48.652;9.292;2023-06-14T04:49:49;19.05;;;9.20;;
73642;SDS011;61938;48.652;9.292;2023-06-14T04:52:17;13.60;;;8.02;;
73642;SDS011;61938;48.652;9.292;2023-06-14T04:54:45;20.70;;;10.13;;
73642;SDS011;61938;48.652;9.292;2023-06-14T04:57:11;20.10;;;9.32;;
73642;SDS011;61938;48.652;9.292;2023-06-14T04:59:38;17.88;;;9.98;;
73642;SDS011;61938;48.652;9.292;2023-06-14T05:02:04;14.50;;;9.73;;
73642;SDS011;61938;48.652;9.292;2023-06-14T05:04:30;20.60;;;9.50;;
73642;SDS011;61938;48.652;9.292;2023-06-14T05:06:55;16.92;;;9.35;;
73642;SDS011;61938;48.652;9.292;2023-06-14T05:09:21;18.45;;;10.45;;
73642;SDS011;61938;48.652;9.292;2023-06-14T05:11:47;21.10;;;9.65;;
73642;SDS011;61938;48.652;9.292;2023-06-14T05:14:12;16.55;;;9.55;;
73642;SDS011;61938;48.652;9.292;2023-06-14T05:16:39;19.35;;;10.18;;
73642;SDS011;61938;48.652;9.292;2023-06-14T05:19:05;18.67;;;9.38;;
73642;SDS011;61938;48.652;9.292;2023-06-14T05:21:31;23.40;;;8.55;;
73642;SDS011;61938;48.652;9.292;2023-06-14T05:24:00;20.13;;;8.70;;
73642;SDS011;61938;48.652;9.292;2023-06-14T05:26:26;16.73;;;9.00;;
73642;SDS011;61938;48.652;9.292;2023-06-14T05:28:58;19.98;;;8.93;;
73642;SDS011;61938;48.652;9.292;2023-06-14T05:31:25;13.85;;;8.52;;
73642;SDS011;61938;48.652;9.292;2023-06-14T05:33:51;13.57;;;8.73;;
73642;SDS011;61938;48.652;9.292;2023-06-14T05:36:16;17.25;;;9.60;;
73642;SDS011;61938;48.652;9.292;2023-06-14T05:38:43;15.95;;;8.52;;
73642;SDS011;61938;48.652;9.292;2023-06-14T05:41:08;17.20;;;9.02;;
73642;SDS011;61938;48.652;9.292;2023-06-14T05:43:34;18.30;;;8.13;;
73642;SDS011;61938;48.652;9.292;2023-06-14T05:45:59;13.90;;;8.90;;
73642;SDS011;61938;48.652;9.292;2023-06-14T05:48:25;21.58;;;9.52;;
73642;SDS011;61938;48.652;9.292;2023-06-14T05:50:50;20.42;;;9.50;;
73642;SDS011;61938;48.652;9.292;2023-06-14T05:53:16;16.92;;;8.90;;
73642;SDS011;61938;48.652;9.292;2023-06-14T05:55:41;17.80;;;9.75;;
73642;SDS011;61938;48.652;9.292;2023-06-14T05:58:07;20.75;;;8.77;;
73642;SDS011;61938;48.652;9.292;2023-06-14T06:00:32;19.20;;;9.88;;
73642;SDS011;61938;48.652;9.292;2023-06-14T06:02:58;21.60;;;9.30;;
73642;SDS011;61938;48.652;9.292;2023-06-14T06:05:24;22.02;;;9.02;;
73642;SDS011;61938;48.652;9.292;2023-06-14T06:07:50;22.55;;;9.45;;
73642;SDS011;61938;48.652;9.292;2023-06-14T06:10:15;16.13;;;8.82;;
73642;SDS011;61938;48.652;9.292;2023-06-14T06:12:41;13.25;;;8.77;;
73642;SDS011;61938;48.652;9.292;2023-06-14T06:15:07;19.77;;;9.13;;
73642;SDS011;61938;48.652;9.292;2023-06-14T06:17:32;23.08;;;8.63;;
73642;SDS011;61938;48.652;9.292;2023-06-14T06:19:58;23.38;;;8.88;;
73642;SDS011;61938;48.652;9.292;2023-06-14T06:22:24;16.95;;;8.45;;
73642;SDS011;61938;48.652;9.292;2023-06-14T06:24:50;12.93;;;7.68;;
73642;SDS011;61938;48.652;9.292;2023-06-14T06:27:15;19.08;;;8.98;;
73642;SDS011;61938;48.652;9.292;2023-06-14T06:29:41;11.93;;;8.30;;
73642;SDS011;61938;48.652;9.292;2023-06-14T06:32:08;17.85;;;8.43;;
73642;SDS011;61938;48.652;9.292;2023-06-14T06:34:33;20.67;;;8.05;;
73642;SDS011;61938;48.652;9.292;2023-06-14T06:36:59;21.70;;;7.28;;
73642;SDS011;61938;48.652;9.292;2023-06-14T06:39:24;14.18;;;7.72;;
73642;SDS011;61938;48.652;9.292;2023-06-14T06:41:50;16.30;;;6.68;;
73642;SDS011;61938;48.652;9.292;2023-06-14T06:44:15;15.63;;;7.25;;
73642;SDS011;61938;48.652;9.292;2023-06-14T06:46:41;11.07;;;7.05;;
73642;SDS011;61938;48.652;9.292;2023-06-14T06:49:08;11.88;;;6.70;;
73642;SDS011;61938;48.652;9.292;2023-06-14T06:51:36;12.68;;;6.28;;
73642;SDS011;61938;48.652;9.292;2023-06-14T06:54:02;12.63;;;7.20;;
73642;SDS011;61938;48.652;9.292;2023-06-14T06:56:28;11.55;;;6.07;;
73642;SDS011;61938;48.652;9.292;2023-06-14T06:58:54;11.82;;;6.22;;
73642;SDS011;61938;48.652;9.292;2023-06-14T07:01:19;14.85;;;6.68;;
73642;SDS011;61938;48.652;9.292;2023-06-14T07:03:45;9.63;;;6.20;;
73642;SDS011;61938;48.652;9.292;2023-06-14T07:06:11;14.57;;;6.88;;
73642;SDS011;61938;48.652;9.292;2023-06-14T07:08:36;13.32;;;6.97;;
73642;SDS011;61938;48.652;9.292;2023-06-14T07:11:03;11.93;;;5.32;;
73642;SDS011;61938;48.652;9.292;2023-06-14T07:13:29;11.45;;;5.70;;
73642;SDS011;61938;48.652;9.292;2023-06-14T07:15:59;11.05;;;5.70;;
73642;SDS011;61938;48.652;9.292;2023-06-14T07:18:27;9.13;;;5.60;;
73642;SDS011;61938;48.652;9.292;2023-06-14T07:20:53;14.13;;;5.90;;
73642;SDS011;61938;48.652;9.292;2023-06-14T07:23:19;10.35;;;6.07;;
73642;SDS011;61938;48.652;9.292;2023-06-14T07:25:45;11.48;;;5.45;;
73642;SDS011;61938;48.652;9.292;2023-06-14T07:28:11;9.13;;;5.25;;
73642;SDS011;61938;48.652;9.292;2023-06-14T07:30:37;7.10;;;5.18;;
73642;SDS011;61938;48.652;9.292;2023-06-14T07:33:02;12.85;;;6.07;;
73642;SDS011;61938;48.652;9.292;2023-06-14T07:35:28;9.75;;;5.43;;
73642;SDS011;61938;48.652;9.292;2023-06-14T07:37:53;10.60;;;6.05;;
73642;SDS011;61938;48.652;9.292;2023-06-14T07:40:18;11.07;;;6.00;;
73642;SDS011;61938;48.652;9.292;2023-06-14T07:42:44;9.85;;;6.00;;
73642;SDS011;61938;48.652;9.292;2023-06-14T07:45:12;9.65;;;6.15;;
73642;SDS011;61938;48.652;9.292;2023-06-14T07:47:40;10.18;;;6.13;;
73642;SDS011;61938;48.652;9.292;2023-06-14T07:50:06;13.30;;;5.80;;
73642;SDS011;61938;48.652;9.292;2023-06-14T07:52:32;9.27;;;5.55;;
73642;SDS011;61938;48.652;9.292;2023-06-14T07:54:57;11.98;;;6.35;;
73642;SDS011;61938;48.652;9.292;2023-06-14T07:57:23;18.80;;;5.68;;
73642;SDS011;61938;48.652;9.292;2023-06-14T07:59:49;9.45;;;6.22;;
73642;SDS011;61938;48.652;9.292;2023-06-14T08:02:15;8.63;;;5.78;;
73642;SDS011;61938;48.652;9.292;2023-06-14T08:04:40;10.30;;;5.90;;
73642;SDS011;61938;48.652;9.292;2023-06-14T08:07:07;16.70;;;5.53;;
73642;SDS011;61938;48.652;9.292;2023-06-14T08:09:32;9.82;;;5.95;;
73642;SDS011;61938;48.652;9.292;2023-06-14T08:11:58;15.68;;;5.93;;
73642;SDS011;61938;48.652;9.292;2023-06-14T08:14:23;10.50;;;6.40;;
73642;SDS011;61938;48.652;9.292;2023-06-14T08:16:49;20.67;;;6.78;;
73642;SDS011;61938;48.652;9.292;2023-06-14T08:19:14;9.52;;;5.75;;
73642;SDS011;61938;48.652;9.292;2023-06-14T08:21:41;9.52;;;5.65;;
73642;SDS011;61938;48.652;9.292;2023-06-14T08:24:08;10.05;;;6.07;;
73642;SDS011;61938;48.652;9.292;2023-06-14T08:26:37;13.05;;;6.25;;
73642;SDS011;61938;48.652;9.292;2023-06-14T08:29:03;8.70;;;6.18;;
73642;SDS011;61938;48.652;9.292;2023-06-14T08:31:29;9.77;;;6.03;;
73642;SDS011;61938;48.652;9.292;2023-06-14T08:33:56;15.60;;;6.10;;
73642;SDS011;61938;48.652;9.292;2023-06-14T08:36:22;13.07;;;6.22;;
73642;SDS011;61938;48.652;9.292;2023-06-14T08:38:47;11.00;;;5.80;;
73642;SDS011;61938;48.652;9.292;2023-06-14T08:41:13;15.45;;;5.95;;
73642;SDS011;61938;48.652;9.292;2023-06-14T08:43:46;13.05;;;5.53;;
73642;SDS011;61938;48.652;9.292;2023-06-14T08:46:12;16.30;;;6.40;;
73642;SDS011;61938;48.652;9.292;2023-06-14T08:48:41;15.52;;;6.38;;
73642;SDS011;61938;48.652;9.292;2023-06-14T08:51:08;9.57;;;5.75;;
73642;SDS011;61938;48.652;9.292;2023-06-14T08:53:35;9.80;;;5.38;;
73642;SDS011;61938;48.652;9.292;2023-06-14T08:56:06;11.10;;;5.20;;
73642;SDS011;61938;48.652;9.292;2023-06-14T08:58:44;9.80;;;4.93;;
73642;SDS011;61938;48.652;9.292;2023-06-14T09:01:13;15.23;;;5.60;;
73642;SDS011;61938;48.652;9.292;2023-06-14T09:03:40;13.43;;;5.63;;
73642;SDS011;61938;48.652;9.292;2023-06-14T09:06:06;6.82;;;4.95;;
73642;SDS011;61938;48.652;9.292;2023-06-14T09:08:34;6.70;;;5.25;;
73642;SDS011;61938;48.652;9.292;2023-06-14T09:11:01;9.68;;;5.10;;
73642;SDS011;61938;48.652;9.292;2023-06-14T09:13:26;11.25;;;5.47;;
73642;SDS011;61938;48.652;9.292;2023-06-14T09:15:52;12.57;;;5.95;;
73642;SDS011;61938;48.652;9.292;2023-06-14T09:18:17;10.88;;;5.53;;
73642;SDS011;61938;48.652;9.292;2023-06-14T09:20:45;11.65;;;5.43;;
73642;SDS011;61938;48.652;9.292;2023-06-14T09:23:12;18.85;;;5.50;;
73642;SDS011;61938;48.652;9.292;2023-06-14T09:25:41;9.25;;;5.25;;
73642;SDS011;61938;48.652;9.292;2023-06-14T09:28:08;14.20;;;5.60;;
73642;SDS011;61938;48.652;9.292;2023-06-14T09:30:35;7.78;;;5.10;;
73642;SDS011;61938;48.652;9.292;2023-06-14T09:33:03;13.18;;;5.28;;
73642;SDS011;61938;48.652;9.292;2023-06-14T09:35:31;12.77;;;5.00;;
73642;SDS011;61938;48.652;9.292;2023-06-14T09:37:57;8.20;;;5.45;;
73642;SDS011;61938;48.652;9.292;2023-06-14T09:40:23;9.82;;;5.25;;
73642;SDS011;61938;48.652;9.292;2023-06-14T09:42:49;10.77;;;4.70;;
73642;SDS011;61938;48.652;9.292;2023-06-14T09:45:15;7.70;;;4.82;;
73642;SDS011;61938;48.652;9.292;2023-06-14T09:47:46;14.13;;;5.07;;
73642;SDS011;61938;48.652;9.292;2023-06-14T09:50:14;6.03;;;4.15;;
73642;SDS011;61938;48.652;9.292;2023-06-14T09:52:39;7.55;;;4.25;;
73642;SDS011;61938;48.652;9.292;2023-06-14T09:55:10;13.18;;;4.85;;
73642;SDS011;61938;48.652;9.292;2023-06-14T09:57:38;9.23;;;4.68;;
73642;SDS011;61938;48.652;9.292;2023-06-14T10:00:07;9.57;;;4.65;;
73642;SDS011;61938;48.652;9.292;2023-06-14T10:02:36;6.05;;;4.13;;
73642;SDS011;61938;48.652;9.292;2023-06-14T10:07:40;8.73;;;4.13;;
73642;SDS011;61938;48.652;9.292;2023-06-14T10:10:17;14.27;;;4.60;;
73642;SDS011;61938;48.652;9.292;2023-06-14T10:12:43;9.63;;;4.45;;
73642;SDS011;61938;48.652;9.292;2023-06-14T10:15:09;7.90;;;4.90;;
73642;SDS011;61938;48.652;9.292;2023-06-14T10:17:46;9.10;;;4.53;;
73642;SDS011;61938;48.652;9.292;2023-06-14T10:22:51;12.85;;;5.18;;
73642;SDS011;61938;48.652;9.292;2023-06-14T10:25:27;16.15;;;4.97;;
73642;SDS011;61938;48.652;9.292;2023-06-14T10:28:01;7.05;;;4.85;;
73642;SDS011;61938;48.652;9.292;2023-06-14T10:30:41;9.63;;;4.50;;
73642;SDS011;61938;48.652;9.292;2023-06-14T10:33:34;9.50;;;4.68;;
73642;SDS011;61938;48.652;9.292;2023-06-14T10:36:46;13.15;;;5.82;;
73642;SDS011;61938;48.652;9.292;2023-06-14T10:38:46;8.82;;;5.15;;
73642;SDS011;61938;48.652;9.292;2023-06-14T10:41:41;8.88;;;5.15;;
73642;SDS011;61938;48.652;9.292;2023-06-14T10:46:38;8.23;;;4.25;;
73642;SDS011;61938;48.652;9.292;2023-06-14T10:49:05;7.78;;;4.70;;
73642;SDS011;61938;48.652;9.292;2023-06-14T10:51:41;13.48;;;5.43;;
73642;SDS011;61938;48.652;9.292;2023-06-14T10:54:18;10.55;;;5.10;;
73642;SDS011;61938;48.652;9.292;2023-06-14T10:56:50;9.90;;;4.80;;
73642;SDS011;61938;48.652;9.292;2023-06-14T10:59:18;10.05;;;4.95;;
73642;SDS011;61938;48.652;9.292;2023-06-14T11:04:47;9.13;;;5.20;;
73642;SDS011;61938;48.652;9.292;2023-06-14T11:07:23;6.53;;;4.75;;
73642;SDS011;61938;48.652;9.292;2023-06-14T11:10:23;9.17;;;5.30;;
73642;SDS011;61938;48.652;9.292;2023-06-14T11:13:02;15.68;;;5.22;;
73642;SDS011;61938;48.652;9.292;2023-06-14T11:15:28;8.88;;;5.65;;
73642;SDS011;61938;48.652;9.292;2023-06-14T11:17:55;8.25;;;5.10;;
73642;SDS011;61938;48.652;9.292;2023-06-14T11:20:24;12.38;;;5.47;;
73642;SDS011;61938;48.652;9.292;2023-06-14T11:22:51;9.18;;;5.30;;
73642;SDS011;61938;48.652;9.292;2023-06-14T11:25:17;11.30;;;5.60;;
73642;SDS011;61938;48.652;9.292;2023-06-14T11:27:43;33.92;;;5.72;;
73642;SDS011;61938;48.652;9.292;2023-06-14T11:30:09;8.82;;;5.20;;
73642;SDS011;61938;48.652;9.292;2023-06-14T11:32:35;9.82;;;4.68;;
73642;SDS011;61938;48.652;9.292;2023-06-14T11:35:02;10.18;;;5.03;;
73642;SDS011;61938;48.652;9.292;2023-06-14T11:37:29;9.70;;;5.50;;
73642;SDS011;61938;48.652;9.292;2023-06-14T11:39:59;9.43;;;5.60;;
73642;SDS011;61938;48.652;9.292;2023-06-14T11:42:33;8.43;;;5.88;;
73642;SDS011;61938;48.652;9.292;2023-06-14T11:44:59;9.77;;;4.97;;
73642;SDS011;61938;48.652;9.292;2023-06-14T11:47:24;7.10;;;4.90;;
73642;SDS011;61938;48.652;9.292;2023-06-14T11:49:56;15.10;;;4.93;;
73642;SDS011;61938;48.652;9.292;2023-06-14T11:52:23;7.43;;;4.82;;
73642;SDS011;61938;48.652;9.292;2023-06-14T11:54:49;9.02;;;4.90;;
73642;SDS011;61938;48.652;9.292;2023-06-14T11:57:15;13.40;;;5.35;;
73642;SDS011;61938;48.652;9.292;2023-06-14T11:59:43;7.97;;;5.20;;
73642;SDS011;61938;48.652;9.292;2023-06-14T12:02:09;13.75;;;5.45;;
73642;SDS011;61938;48.652;9.292;2023-06-14T12:04:40;7.55;;;4.72;;
73642;SDS011;61938;48.652;9.292;2023-06-14T12:07:10;13.52;;;4.88;;
73642;SDS011;61938;48.652;9.292;2023-06-14T12:10:25;15.65;;;5.57;;
73642;SDS011;61938;48.652;9.292;2023-06-14T12:12:26;8.40;;;5.40;;
73642;SDS011;61938;48.652;9.292;2023-06-14T12:14:52;12.20;;;5.00;;
73642;SDS011;61938;48.652;9.292;2023-06-14T12:17:18;7.70;;;5.03;;
73642;SDS011;61938;48.652;9.292;2023-06-14T12:19:44;8.98;;;6.03;;
73642;SDS011;61938;48.652;9.292;2023-06-14T12:22:11;7.15;;;5.22;;
73642;SDS011;61938;48.652;9.292;2023-06-14T12:24:38;9.68;;;5.53;;
73642;SDS011;61938;48.652;9.292;2023-06-14T12:27:04;8.45;;;4.85;;
73642;SDS011;61938;48.652;9.292;2023-06-14T12:29:31;7.43;;;5.10;;
73642;SDS011;61938;48.652;9.292;2023-06-14T12:31:57;11.80;;;5.10;;
73642;SDS011;61938;48.652;9.292;2023-06-14T12:34:23;10.23;;;5.00;;
73642;SDS011;61938;48.652;9.292;2023-06-14T12:36:52;11.70;;;5.00;;
73642;SDS011;61938;48.652;9.292;2023-06-14T12:41:46;7.28;;;5.30;;
73642;SDS011;61938;48.652;9.292;2023-06-14T12:44:12;9.35;;;5.18;;
73642;SDS011;61938;48.652;9.292;2023-06-14T12:46:37;12.85;;;5.25;;
73642;SDS011;61938;48.652;9.292;2023-06-14T12:49:09;8.57;;;5.10;;
73642;SDS011;61938;48.652;9.292;2023-06-14T12:51:36;11.10;;;5.20;;
73642;SDS011;61938;48.652;9.292;2023-06-14T12:54:02;7.13;;;4.85;;
73642;SDS011;61938;48.652;9.292;2023-06-14T12:56:28;7.57;;;5.13;;
73642;SDS011;61938;48.652;9.292;2023-06-14T12:58:53;8.02;;;4.68;;
73642;SDS011;61938;48.652;9.292;2023-06-14T13:01:19;10.32;;;4.22;;
73642;SDS011;61938;48.652;9.292;2023-06-14T13:03:48;8.30;;;4.85;;
73642;SDS011;61938;48.652;9.292;2023-06-14T13:06:15;9.80;;;4.67;;
73642;SDS011;61938;48.652;9.292;2023-06-14T13:08:41;16.20;;;4.97;;
73642;SDS011;61938;48.652;9.292;2023-06-14T13:11:06;8.43;;;4.63;;
73642;SDS011;61938;48.652;9.292;2023-06-14T13:13:32;9.73;;;4.85;;
73642;SDS011;61938;48.652;9.292;2023-06-14T13:15:57;7.57;;;4.93;;
73642;SDS011;61938;48.652;9.292;2023-06-14T13:18:23;8.57;;;5.07;;
73642;SDS011;61938;48.652;9.292;2023-06-14T13:20:48;9.88;;;5.25;;
73642;SDS011;61938;48.652;9.292;2023-06-14T13:23:15;8.45;;;5.38;;
73642;SDS011;61938;48.652;9.292;2023-06-14T13:25:40;7.28;;;4.88;;
73642;SDS011;61938;48.652;9.292;2023-06-14T13:28:06;15.25;;;5.13;;
73642;SDS011;61938;48.652;9.292;2023-06-14T13:30:32;9.50;;;4.60;;
73642;SDS011;61938;48.652;9.292;2023-06-14T13:32:58;10.23;;;5.18;;
73642;SDS011;61938;48.652;9.292;2023-06-14T13:35:24;8.35;;;4.18;;
73642;SDS011;61938;48.652;9.292;2023-06-14T13:37:49;10.35;;;4.57;;
73642;SDS011;61938;48.652;9.292;2023-06-14T13:40:15;9.73;;;4.78;;
73642;SDS011;61938;48.652;9.292;2023-06-14T13:42:41;7.68;;;4.00;;
73642;SDS011;61938;48.652;9.292;2023-06-14T13:45:07;21.20;;;4.88;;
73642;SDS011;61938;48.652;9.292;2023-06-14T13:47:33;9.30;;;4.88;;
73642;SDS011;61938;48.652;9.292;2023-06-14T13:49:59;12.43;;;4.53;;
73642;SDS011;61938;48.652;9.292;2023-06-14T13:52:25;11.20;;;4.88;;
73642;SDS011;61938;48.652;9.292;2023-06-14T13:54:51;11.48;;;5.47;;
73642;SDS011;61938;48.652;9.292;2023-06-14T13:57:17;12.35;;;4.68;;
73642;SDS011;61938;48.652;9.292;2023-06-14T13:59:43;8.85;;;4.85;;
73642;SDS011;61938;48.652;9.292;2023-06-14T14:02:12;6.32;;;4.50;;
73642;SDS011;61938;48.652;9.292;2023-06-14T14:04:38;8.52;;;5.05;;
73642;SDS011;61938;48.652;9.292;2023-06-14T14:07:04;10.10;;;4.97;;
73642;SDS011;61938;48.652;9.292;2023-06-14T14:09:31;9.05;;;5.15;;
73642;SDS011;61938;48.652;9.292;2023-06-14T14:12:00;7.80;;;4.32;;
73642;SDS011;61938;48.652;9.292;2023-06-14T14:14:27;12.73;;;4.90;;
73642;SDS011;61938;48.652;9.292;2023-06-14T14:16:53;8.23;;;4.80;;
73642;SDS011;61938;48.652;9.292;2023-06-14T14:19:19;10.07;;;4.68;;
73642;SDS011;61938;48.652;9.292;2023-06-14T14:21:47;5.53;;;4.15;;
73642;SDS011;61938;48.652;9.292;2023-06-14T14:24:13;8.50;;;4.55;;
73642;SDS011;61938;48.652;9.292;2023-06-14T14:26:39;13.85;;;5.50;;
73642;SDS011;61938;48.652;9.292;2023-06-14T14:29:05;9.35;;;4.45;;
73642;SDS011;61938;48.652;9.292;2023-06-14T14:31:31;8.70;;;5.07;;
73642;SDS011;61938;48.652;9.292;2023-06-14T14:33:57;13.20;;;5.13;;
73642;SDS011;61938;48.652;9.292;2023-06-14T14:36:22;9.73;;;5.07;;
73642;SDS011;61938;48.652;9.292;2023-06-14T14:38:48;14.85;;;5.00;;
73642;SDS011;61938;48.652;9.292;2023-06-14T14:41:13;8.65;;;5.22;;
73642;SDS011;61938;48.652;9.292;2023-06-14T14:43:39;6.13;;;4.65;;
73642;SDS011;61938;48.652;9.292;2023-06-14T14:46:04;9.30;;;5.32;;
73642;SDS011;61938;48.652;9.292;2023-06-14T14:48:30;8.43;;;4.40;;
73642;SDS011;61938;48.652;9.292;2023-06-14T14:50:56;10.10;;;5.05;;
73642;SDS011;61938;48.652;9.292;2023-06-14T14:53:21;12.50;;;5.65;;
73642;SDS011;61938;48.652;9.292;2023-06-14T14:55:48;7.47;;;4.80;;